sensor_id;sensor_type;location;lat;lon;timestamp;P1;durP1;ratioP1;P2;durP2;ratioP2
70169;SDS011;57543;45.442;9.212;2023-04-01T00:02:34;12.27;;;8.68;;
70169;SDS011;57543;45.442;9.212;2023-04-01T00:05:38;13.30;;;8.88;;
70169;SDS011;57543;45.442;9.212;2023-04-01T00:08:42;14.20;;;9.20;;
70169;SDS011;57543;45.442;9.212;2023-04-01T00:11:46;14.75;;;9.10;;
70169;SDS011;57543;45.442;9.212;2023-04-01T00:14:50;13.43;;;9.30;;
70169;SDS011;57543;45.442;9.212;2023-04-01T00:17:54;13.95;;;9.20;;
70169;SDS011;57543;45.442;9.212;2023-04-01T00:20:58;15.35;;;9.80;;
70169;SDS011;57543;45.442;9.212;2023-04-01T00:24:01;12.60;;;9.00;;
70169;SDS011;57543;45.442;9.212;2023-04-01T00:27:05;14.20;;;9.55;;
70169;SDS011;57543;45.442;9.212;2023-04-01T00:30:10;15.83;;;9.27;;
70169;SDS011;57543;45.442;9.212;2023-04-01T00:33:15;14.70;;;9.20;;
70169;SDS011;57543;45.442;9.212;2023-04-01T00:36:20;15.13;;;9.48;;
70169;SDS011;57543;45.442;9.212;2023-04-01T00:39:30;13.75;;;9.50;;
70169;SDS011;57543;45.442;9.212;2023-04-01T00:42:36;12.88;;;8.85;;
70169;SDS011;57543;45.442;9.212;2023-04-01T00:45:41;14.10;;;9.10;;
70169;SDS011;57543;45.442;9.212;2023-04-01T00:48:53;14.40;;;9.70;;
70169;SDS011;57543;45.442;9.212;2023-04-01T00:51:58;15.10;;;9.40;;
70169;SDS011;57543;45.442;9.212;2023-04-01T00:55:04;13.55;;;8.75;;
70169;SDS011;57543;45.442;9.212;2023-04-01T00:58:13;14.20;;;8.63;;
70169;SDS011;57543;45.442;9.212;2023-04-01T01:01:23;12.57;;;8.60;;
70169;SDS011;57543;45.442;9.212;2023-04-01T01:04:28;13.80;;;8.70;;
70169;SDS011;57543;45.442;9.212;2023-04-01T01:11:29;12.40;;;7.78;;
70169;SDS011;57543;45.442;9.212;2023-04-01T01:21:51;12.82;;;8.52;;
70169;SDS011;57543;45.442;9.212;2023-04-01T01:35:14;12.97;;;8.13;;
70169;SDS011;57543;45.442;9.212;2023-04-01T01:38:24;12.55;;;7.97;;
70169;SDS011;57543;45.442;9.212;2023-04-01T01:41:36;11.48;;;7.80;;
70169;SDS011;57543;45.442;9.212;2023-04-01T01:44:42;10.70;;;7.43;;
70169;SDS011;57543;45.442;9.212;2023-04-01T01:47:48;13.52;;;6.85;;
70169;SDS011;57543;45.442;9.212;2023-04-01T01:50:53;10.57;;;6.60;;
70169;SDS011;57543;45.442;9.212;2023-04-01T01:53:57;10.82;;;6.80;;
70169;SDS011;57543;45.442;9.212;2023-04-01T01:57:06;9.57;;;6.82;;
70169;SDS011;57543;45.442;9.212;2023-04-01T02:00:13;9.63;;;6.65;;
70169;SDS011;57543;45.442;9.212;2023-04-01T02:03:20;10.45;;;6.97;;
70169;SDS011;57543;45.442;9.212;2023-04-01T02:06:26;9.87;;;6.80;;
70169;SDS011;57543;45.442;9.212;2023-04-01T02:09:32;10.27;;;6.40;;
70169;SDS011;57543;45.442;9.212;2023-04-01T02:12:39;10.23;;;6.13;;
70169;SDS011;57543;45.442;9.212;2023-04-01T02:15:47;9.32;;;6.05;;
70169;SDS011;57543;45.442;9.212;2023-04-01T02:18:54;9.43;;;6.53;;
70169;SDS011;57543;45.442;9.212;2023-04-01T02:22:00;9.20;;;6.17;;
70169;SDS011;57543;45.442;9.212;2023-04-01T02:25:07;9.30;;;6.00;;
70169;SDS011;57543;45.442;9.212;2023-04-01T02:28:13;10.73;;;5.90;;
70169;SDS011;57543;45.442;9.212;2023-04-01T02:31:19;9.48;;;6.00;;
70169;SDS011;57543;45.442;9.212;2023-04-01T02:34:24;8.68;;;5.85;;
70169;SDS011;57543;45.442;9.212;2023-04-01T02:37:28;11.40;;;6.60;;
70169;SDS011;57543;45.442;9.212;2023-04-01T02:40:42;8.68;;;5.65;;
70169;SDS011;57543;45.442;9.212;2023-04-01T02:43:54;10.10;;;6.47;;
70169;SDS011;57543;45.442;9.212;2023-04-01T02:46:58;9.10;;;6.10;;
70169;SDS011;57543;45.442;9.212;2023-04-01T02:50:01;10.05;;;6.68;;
70169;SDS011;57543;45.442;9.212;2023-04-01T02:53:05;10.73;;;6.90;;
70169;SDS011;57543;45.442;9.212;2023-04-01T02:56:09;9.93;;;6.45;;
70169;SDS011;57543;45.442;9.212;2023-04-01T02:59:13;10.23;;;6.22;;
70169;SDS011;57543;45.442;9.212;2023-04-01T03:02:17;10.40;;;6.38;;
70169;SDS011;57543;45.442;9.212;2023-04-01T03:05:21;10.27;;;6.68;;
70169;SDS011;57543;45.442;9.212;2023-04-01T03:08:25;10.97;;;6.60;;
70169;SDS011;57543;45.442;9.212;2023-04-01T03:11:28;11.02;;;6.80;;
70169;SDS011;57543;45.442;9.212;2023-04-01T03:14:32;9.73;;;6.70;;
70169;SDS011;57543;45.442;9.212;2023-04-01T03:17:35;11.68;;;6.55;;
70169;SDS011;57543;45.442;9.212;2023-04-01T03:20:39;10.05;;;6.25;;
70169;SDS011;57543;45.442;9.212;2023-04-01T03:23:43;9.23;;;6.40;;
70169;SDS011;57543;45.442;9.212;2023-04-01T03:26:46;11.27;;;6.07;;
70169;SDS011;57543;45.442;9.212;2023-04-01T03:29:50;11.00;;;6.65;;
70169;SDS011;57543;45.442;9.212;2023-04-01T03:32:54;10.95;;;7.40;;
70169;SDS011;57543;45.442;9.212;2023-04-01T03:35:57;9.45;;;6.07;;
70169;SDS011;57543;45.442;9.212;2023-04-01T03:39:02;10.17;;;6.60;;
70169;SDS011;57543;45.442;9.212;2023-04-01T03:42:14;10.93;;;6.78;;
70169;SDS011;57543;45.442;9.212;2023-04-01T03:45:18;9.52;;;6.50;;
70169;SDS011;57543;45.442;9.212;2023-04-01T03:48:21;9.75;;;6.43;;
70169;SDS011;57543;45.442;9.212;2023-04-01T03:51:25;10.70;;;6.90;;
70169;SDS011;57543;45.442;9.212;2023-04-01T03:54:29;12.70;;;7.47;;
70169;SDS011;57543;45.442;9.212;2023-04-01T03:57:32;13.40;;;7.57;;
70169;SDS011;57543;45.442;9.212;2023-04-01T04:00:42;11.38;;;7.32;;
70169;SDS011;57543;45.442;9.212;2023-04-01T04:03:46;12.68;;;8.18;;
70169;SDS011;57543;45.442;9.212;2023-04-01T04:06:52;11.55;;;7.85;;
70169;SDS011;57543;45.442;9.212;2023-04-01T04:09:58;12.43;;;8.30;;
70169;SDS011;57543;45.442;9.212;2023-04-01T04:13:01;10.63;;;7.13;;
70169;SDS011;57543;45.442;9.212;2023-04-01T04:16:07;10.95;;;7.25;;
70169;SDS011;57543;45.442;9.212;2023-04-01T04:19:14;12.60;;;8.10;;
70169;SDS011;57543;45.442;9.212;2023-04-01T04:22:18;12.23;;;7.40;;
70169;SDS011;57543;45.442;9.212;2023-04-01T04:25:22;12.17;;;7.63;;
70169;SDS011;57543;45.442;9.212;2023-04-01T04:28:26;11.68;;;7.57;;
70169;SDS011;57543;45.442;9.212;2023-04-01T04:31:30;11.63;;;7.80;;
70169;SDS011;57543;45.442;9.212;2023-04-01T04:34:36;9.18;;;6.70;;
70169;SDS011;57543;45.442;9.212;2023-04-01T04:37:39;10.43;;;6.32;;
70169;SDS011;57543;45.442;9.212;2023-04-01T04:40:44;9.40;;;6.07;;
70169;SDS011;57543;45.442;9.212;2023-04-01T04:43:49;9.10;;;5.95;;
70169;SDS011;57543;45.442;9.212;2023-04-01T04:46:58;9.02;;;5.80;;
70169;SDS011;57543;45.442;9.212;2023-04-01T04:50:02;10.30;;;6.03;;
70169;SDS011;57543;45.442;9.212;2023-04-01T04:53:06;8.20;;;5.65;;
70169;SDS011;57543;45.442;9.212;2023-04-01T04:56:12;8.83;;;5.40;;
70169;SDS011;57543;45.442;9.212;2023-04-01T04:59:24;8.07;;;5.57;;
70169;SDS011;57543;45.442;9.212;2023-04-01T05:02:36;9.52;;;5.43;;
70169;SDS011;57543;45.442;9.212;2023-04-01T05:05:40;9.02;;;5.57;;
70169;SDS011;57543;45.442;9.212;2023-04-01T05:08:50;9.27;;;5.30;;
70169;SDS011;57543;45.442;9.212;2023-04-01T05:11:54;7.97;;;5.03;;
70169;SDS011;57543;45.442;9.212;2023-04-01T05:14:59;10.30;;;5.57;;
70169;SDS011;57543;45.442;9.212;2023-04-01T05:18:03;8.80;;;5.55;;
70169;SDS011;57543;45.442;9.212;2023-04-01T05:21:08;9.73;;;5.43;;
70169;SDS011;57543;45.442;9.212;2023-04-01T05:24:12;10.77;;;6.65;;
70169;SDS011;57543;45.442;9.212;2023-04-01T05:27:16;9.63;;;6.60;;
70169;SDS011;57543;45.442;9.212;2023-04-01T05:30:20;11.07;;;6.53;;
70169;SDS011;57543;45.442;9.212;2023-04-01T05:33:37;10.25;;;5.95;;
70169;SDS011;57543;45.442;9.212;2023-04-01T05:36:42;11.63;;;6.38;;
70169;SDS011;57543;45.442;9.212;2023-04-01T05:39:46;11.38;;;6.57;;
70169;SDS011;57543;45.442;9.212;2023-04-01T05:42:50;13.40;;;6.90;;
70169;SDS011;57543;45.442;9.212;2023-04-01T05:45:54;11.60;;;6.28;;
70169;SDS011;57543;45.442;9.212;2023-04-01T05:49:26;9.75;;;6.45;;
70169;SDS011;57543;45.442;9.212;2023-04-01T05:52:30;10.60;;;6.80;;
70169;SDS011;57543;45.442;9.212;2023-04-01T05:55:34;10.93;;;6.82;;
70169;SDS011;57543;45.442;9.212;2023-04-01T05:58:38;11.50;;;6.80;;
70169;SDS011;57543;45.442;9.212;2023-04-01T06:01:44;9.85;;;6.75;;
70169;SDS011;57543;45.442;9.212;2023-04-01T06:04:49;11.23;;;6.10;;
70169;SDS011;57543;45.442;9.212;2023-04-01T06:07:58;11.55;;;6.10;;
70169;SDS011;57543;45.442;9.212;2023-04-01T06:11:17;10.20;;;6.18;;
70169;SDS011;57543;45.442;9.212;2023-04-01T06:24:56;12.50;;;6.60;;
70169;SDS011;57543;45.442;9.212;2023-04-01T06:31:59;11.30;;;6.63;;
70169;SDS011;57543;45.442;9.212;2023-04-01T06:42:13;11.55;;;6.18;;
70169;SDS011;57543;45.442;9.212;2023-04-01T06:53:25;6.28;;;3.50;;
70169;SDS011;57543;45.442;9.212;2023-04-01T06:56:58;7.60;;;3.70;;
70169;SDS011;57543;45.442;9.212;2023-04-01T07:00:11;6.07;;;3.30;;
70169;SDS011;57543;45.442;9.212;2023-04-01T07:06:47;5.90;;;3.50;;
70169;SDS011;57543;45.442;9.212;2023-04-01T07:09:55;6.55;;;3.50;;
70169;SDS011;57543;45.442;9.212;2023-04-01T07:13:09;7.32;;;3.45;;
70169;SDS011;57543;45.442;9.212;2023-04-01T07:16:35;7.68;;;3.90;;
70169;SDS011;57543;45.442;9.212;2023-04-01T07:23:25;7.20;;;3.60;;
70169;SDS011;57543;45.442;9.212;2023-04-01T07:26:38;6.47;;;3.60;;
70169;SDS011;57543;45.442;9.212;2023-04-01T07:29:48;5.32;;;3.50;;
70169;SDS011;57543;45.442;9.212;2023-04-01T07:33:07;5.63;;;3.20;;
70169;SDS011;57543;45.442;9.212;2023-04-01T07:36:22;6.53;;;3.13;;
70169;SDS011;57543;45.442;9.212;2023-04-01T07:53:03;8.05;;;5.18;;
70169;SDS011;57543;45.442;9.212;2023-04-01T07:56:25;9.20;;;5.50;;
70169;SDS011;57543;45.442;9.212;2023-04-01T08:17:28;7.82;;;4.57;;
70169;SDS011;57543;45.442;9.212;2023-04-01T08:20:32;6.18;;;4.47;;
70169;SDS011;57543;45.442;9.212;2023-04-01T08:23:43;9.00;;;4.60;;
70169;SDS011;57543;45.442;9.212;2023-04-01T08:26:51;8.63;;;4.82;;
70169;SDS011;57543;45.442;9.212;2023-04-01T08:30:19;6.97;;;4.60;;
70169;SDS011;57543;45.442;9.212;2023-04-01T08:33:28;10.10;;;5.72;;
70169;SDS011;57543;45.442;9.212;2023-04-01T08:36:45;9.32;;;4.70;;
70169;SDS011;57543;45.442;9.212;2023-04-01T08:39:55;7.07;;;4.35;;
70169;SDS011;57543;45.442;9.212;2023-04-01T08:57:04;5.97;;;3.70;;
70169;SDS011;57543;45.442;9.212;2023-04-01T09:01:11;6.70;;;3.90;;
70169;SDS011;57543;45.442;9.212;2023-04-01T09:07:51;8.63;;;3.58;;
70169;SDS011;57543;45.442;9.212;2023-04-01T09:11:28;8.73;;;3.72;;
70169;SDS011;57543;45.442;9.212;2023-04-01T09:22:09;7.60;;;3.70;;
70169;SDS011;57543;45.442;9.212;2023-04-01T09:28:33;7.32;;;3.53;;
70169;SDS011;57543;45.442;9.212;2023-04-01T09:35:46;7.50;;;3.83;;
70169;SDS011;57543;45.442;9.212;2023-04-01T09:56:06;6.93;;;4.10;;
70169;SDS011;57543;45.442;9.212;2023-04-01T09:59:24;7.15;;;4.03;;
70169;SDS011;57543;45.442;9.212;2023-04-01T10:17:33;6.68;;;3.20;;
70169;SDS011;57543;45.442;9.212;2023-04-01T10:21:07;4.90;;;2.90;;
70169;SDS011;57543;45.442;9.212;2023-04-01T10:42:13;5.43;;;3.30;;
70169;SDS011;57543;45.442;9.212;2023-04-01T10:49:42;6.40;;;3.30;;
70169;SDS011;57543;45.442;9.212;2023-04-01T11:04:30;6.25;;;3.10;;
70169;SDS011;57543;45.442;9.212;2023-04-01T11:08:27;5.67;;;2.80;;
70169;SDS011;57543;45.442;9.212;2023-04-01T11:22:36;5.25;;;2.53;;
70169;SDS011;57543;45.442;9.212;2023-04-01T11:26:15;3.27;;;1.43;;
70169;SDS011;57543;45.442;9.212;2023-04-01T11:33:23;3.70;;;1.70;;
70169;SDS011;57543;45.442;9.212;2023-04-01T11:36:37;3.00;;;1.23;;
70169;SDS011;57543;45.442;9.212;2023-04-01T11:43:26;2.90;;;1.40;;
70169;SDS011;57543;45.442;9.212;2023-04-01T11:47:03;3.97;;;1.40;;
70169;SDS011;57543;45.442;9.212;2023-04-01T11:50:23;4.47;;;1.80;;
70169;SDS011;57543;45.442;9.212;2023-04-01T12:10:46;2.90;;;1.50;;
70169;SDS011;57543;45.442;9.212;2023-04-01T12:14:18;2.78;;;1.30;;
70169;SDS011;57543;45.442;9.212;2023-04-01T12:21:37;2.70;;;1.40;;
70169;SDS011;57543;45.442;9.212;2023-04-01T12:24:25;2.35;;;1.10;;
70169;SDS011;57543;45.442;9.212;2023-04-01T12:27:43;2.13;;;0.90;;
70169;SDS011;57543;45.442;9.212;2023-04-01T12:37:39;2.50;;;0.90;;
70169;SDS011;57543;45.442;9.212;2023-04-01T12:44:09;3.03;;;1.10;;
70169;SDS011;57543;45.442;9.212;2023-04-01T12:54:34;1.95;;;1.00;;
70169;SDS011;57543;45.442;9.212;2023-04-01T13:01:18;2.25;;;0.95;;
70169;SDS011;57543;45.442;9.212;2023-04-01T13:04:35;2.40;;;1.00;;
70169;SDS011;57543;45.442;9.212;2023-04-01T13:14:16;2.72;;;1.50;;
70169;SDS011;57543;45.442;9.212;2023-04-01T13:24:18;3.50;;;0.97;;
70169;SDS011;57543;45.442;9.212;2023-04-01T13:27:43;1.90;;;0.85;;
70169;SDS011;57543;45.442;9.212;2023-04-01T13:30:58;3.13;;;1.13;;
70169;SDS011;57543;45.442;9.212;2023-04-01T13:37:45;2.65;;;1.10;;
70169;SDS011;57543;45.442;9.212;2023-04-01T14:08:00;2.17;;;0.90;;
70169;SDS011;57543;45.442;9.212;2023-04-01T14:11:25;2.30;;;1.20;;
70169;SDS011;57543;45.442;9.212;2023-04-01T14:25:33;2.28;;;1.00;;
70169;SDS011;57543;45.442;9.212;2023-04-01T14:28:57;2.50;;;1.00;;
70169;SDS011;57543;45.442;9.212;2023-04-01T14:52:52;2.10;;;0.98;;
70169;SDS011;57543;45.442;9.212;2023-04-01T14:56:01;2.95;;;1.10;;
70169;SDS011;57543;45.442;9.212;2023-04-01T14:59:10;2.00;;;0.80;;
70169;SDS011;57543;45.442;9.212;2023-04-01T15:02:28;2.17;;;0.70;;
70169;SDS011;57543;45.442;9.212;2023-04-01T15:05:46;2.37;;;0.73;;
70169;SDS011;57543;45.442;9.212;2023-04-01T15:12:48;2.72;;;1.10;;
70169;SDS011;57543;45.442;9.212;2023-04-01T15:28:49;4.13;;;0.90;;
70169;SDS011;57543;45.442;9.212;2023-04-01T15:36:04;1.80;;;0.80;;
70169;SDS011;57543;45.442;9.212;2023-04-01T15:39:24;2.87;;;1.00;;
70169;SDS011;57543;45.442;9.212;2023-04-01T15:49:48;3.20;;;0.93;;
70169;SDS011;57543;45.442;9.212;2023-04-01T15:59:44;1.83;;;0.85;;
70169;SDS011;57543;45.442;9.212;2023-04-01T16:09:50;2.75;;;1.05;;
70169;SDS011;57543;45.442;9.212;2023-04-01T16:13:18;2.20;;;1.00;;
70169;SDS011;57543;45.442;9.212;2023-04-01T16:26:28;1.92;;;0.80;;
70169;SDS011;57543;45.442;9.212;2023-04-01T16:39:47;2.00;;;0.85;;
70169;SDS011;57543;45.442;9.212;2023-04-01T16:42:51;1.95;;;0.80;;
70169;SDS011;57543;45.442;9.212;2023-04-01T16:49:17;2.15;;;1.00;;
70169;SDS011;57543;45.442;9.212;2023-04-01T16:52:36;1.85;;;0.70;;
70169;SDS011;57543;45.442;9.212;2023-04-01T16:59:25;2.13;;;0.80;;
70169;SDS011;57543;45.442;9.212;2023-04-01T17:02:37;2.13;;;0.83;;
70169;SDS011;57543;45.442;9.212;2023-04-01T17:09:19;2.10;;;0.80;;
70169;SDS011;57543;45.442;9.212;2023-04-01T17:16:18;2.20;;;0.80;;
70169;SDS011;57543;45.442;9.212;2023-04-01T17:26:25;2.25;;;0.70;;
70169;SDS011;57543;45.442;9.212;2023-04-01T17:56:32;3.55;;;1.05;;
70169;SDS011;57543;45.442;9.212;2023-04-01T17:59:49;3.50;;;1.67;;
70169;SDS011;57543;45.442;9.212;2023-04-01T18:10:28;3.50;;;1.30;;
70169;SDS011;57543;45.442;9.212;2023-04-01T18:14:02;3.92;;;1.40;;
70169;SDS011;57543;45.442;9.212;2023-04-01T18:23:51;2.90;;;1.30;;
70169;SDS011;57543;45.442;9.212;2023-04-01T18:27:03;3.73;;;1.50;;
70169;SDS011;57543;45.442;9.212;2023-04-01T18:30:11;3.60;;;1.40;;
70169;SDS011;57543;45.442;9.212;2023-04-01T18:33:24;3.95;;;1.50;;
70169;SDS011;57543;45.442;9.212;2023-04-01T18:36:55;3.83;;;1.75;;
70169;SDS011;57543;45.442;9.212;2023-04-01T18:40:10;5.68;;;1.70;;
70169;SDS011;57543;45.442;9.212;2023-04-01T18:46:36;3.72;;;1.83;;
70169;SDS011;57543;45.442;9.212;2023-04-01T18:50:07;4.40;;;2.10;;
70169;SDS011;57543;45.442;9.212;2023-04-01T18:53:23;4.25;;;1.77;;
70169;SDS011;57543;45.442;9.212;2023-04-01T18:56:34;6.22;;;2.40;;
70169;SDS011;57543;45.442;9.212;2023-04-01T19:00:24;5.17;;;2.13;;
70169;SDS011;57543;45.442;9.212;2023-04-01T19:07:21;5.13;;;2.42;;
70169;SDS011;57543;45.442;9.212;2023-04-01T19:14:36;5.00;;;2.50;;
70169;SDS011;57543;45.442;9.212;2023-04-01T19:21:37;5.47;;;2.67;;
70169;SDS011;57543;45.442;9.212;2023-04-01T19:42:56;7.93;;;3.33;;
70169;SDS011;57543;45.442;9.212;2023-04-01T19:46:10;6.97;;;3.10;;
70169;SDS011;57543;45.442;9.212;2023-04-01T19:49:37;6.93;;;3.35;;
70169;SDS011;57543;45.442;9.212;2023-04-01T19:52:52;7.97;;;3.83;;
70169;SDS011;57543;45.442;9.212;2023-04-01T19:56:07;7.85;;;3.42;;
70169;SDS011;57543;45.442;9.212;2023-04-01T19:59:24;8.80;;;3.92;;
70169;SDS011;57543;45.442;9.212;2023-04-01T20:12:44;7.32;;;3.30;;
70169;SDS011;57543;45.442;9.212;2023-04-01T20:16:12;7.85;;;3.85;;
70169;SDS011;57543;45.442;9.212;2023-04-01T20:19:25;6.90;;;3.08;;
70169;SDS011;57543;45.442;9.212;2023-04-01T20:25:58;6.07;;;2.60;;
70169;SDS011;57543;45.442;9.212;2023-04-01T20:36:21;5.13;;;2.92;;
70169;SDS011;57543;45.442;9.212;2023-04-01T20:49:47;5.85;;;2.70;;
70169;SDS011;57543;45.442;9.212;2023-04-01T20:53:15;7.50;;;2.78;;
70169;SDS011;57543;45.442;9.212;2023-04-01T20:56:27;7.30;;;2.50;;
70169;SDS011;57543;45.442;9.212;2023-04-01T21:17:14;6.77;;;2.97;;
70169;SDS011;57543;45.442;9.212;2023-04-01T21:20:24;5.45;;;2.47;;
70169;SDS011;57543;45.442;9.212;2023-04-01T21:37:50;5.93;;;1.95;;
70169;SDS011;57543;45.442;9.212;2023-04-01T21:44:47;4.63;;;2.05;;
70169;SDS011;57543;45.442;9.212;2023-04-01T21:48:21;3.88;;;1.70;;
70169;SDS011;57543;45.442;9.212;2023-04-01T21:55:34;3.22;;;1.80;;
70169;SDS011;57543;45.442;9.212;2023-04-01T21:58:54;3.53;;;1.70;;
70169;SDS011;57543;45.442;9.212;2023-04-01T22:09:10;5.17;;;1.80;;
70169;SDS011;57543;45.442;9.212;2023-04-01T22:12:30;114.75;;;41.67;;
70169;SDS011;57543;45.442;9.212;2023-04-01T22:15:45;142.60;;;46.33;;
70169;SDS011;57543;45.442;9.212;2023-04-01T22:19:20;46.85;;;16.17;;
70169;SDS011;57543;45.442;9.212;2023-04-01T22:22:46;22.42;;;7.65;;
70169;SDS011;57543;45.442;9.212;2023-04-01T22:26:05;9.65;;;3.22;;
70169;SDS011;57543;45.442;9.212;2023-04-01T22:29:17;7.43;;;2.25;;
70169;SDS011;57543;45.442;9.212;2023-04-01T22:35:54;4.60;;;2.00;;
70169;SDS011;57543;45.442;9.212;2023-04-01T22:39:28;4.25;;;1.80;;
70169;SDS011;57543;45.442;9.212;2023-04-01T22:42:45;4.07;;;1.70;;
70169;SDS011;57543;45.442;9.212;2023-04-01T22:49:32;4.30;;;1.88;;
70169;SDS011;57543;45.442;9.212;2023-04-01T22:52:47;4.35;;;1.77;;
70169;SDS011;57543;45.442;9.212;2023-04-01T22:55:59;5.22;;;1.52;;
70169;SDS011;57543;45.442;9.212;2023-04-01T22:59:30;4.40;;;1.80;;
70169;SDS011;57543;45.442;9.212;2023-04-01T23:02:40;4.82;;;1.83;;
70169;SDS011;57543;45.442;9.212;2023-04-01T23:05:53;3.83;;;1.67;;
70169;SDS011;57543;45.442;9.212;2023-04-01T23:12:05;3.92;;;2.10;;
70169;SDS011;57543;45.442;9.212;2023-04-01T23:15:13;4.23;;;2.20;;
70169;SDS011;57543;45.442;9.212;2023-04-01T23:18:28;3.55;;;1.80;;
70169;SDS011;57543;45.442;9.212;2023-04-01T23:21:44;3.97;;;2.00;;
70169;SDS011;57543;45.442;9.212;2023-04-01T23:24:53;4.38;;;1.90;;
70169;SDS011;57543;45.442;9.212;2023-04-01T23:31:37;5.27;;;1.60;;
70169;SDS011;57543;45.442;9.212;2023-04-01T23:34:50;4.22;;;1.80;;
70169;SDS011;57543;45.442;9.212;2023-04-01T23:37:55;3.70;;;2.00;;
70169;SDS011;57543;45.442;9.212;2023-04-01T23:40:59;4.68;;;2.60;;
70169;SDS011;57543;45.442;9.212;2023-04-01T23:44:05;4.15;;;2.40;;
70169;SDS011;57543;45.442;9.212;2023-04-01T23:47:14;5.67;;;2.40;;
70169;SDS011;57543;45.442;9.212;2023-04-01T23:50:22;6.38;;;2.35;;
70169;SDS011;57543;45.442;9.212;2023-04-01T23:53:30;4.15;;;2.30;;
70169;SDS011;57543;45.442;9.212;2023-04-01T23:56:46;5.57;;;2.60;;
